sensor_id;sensor_type;location;lat;lon;timestamp;P1;durP1;ratioP1;P2;durP2;ratioP2
57643;SDS011;43474;46.510;6.686;2023-02-28T00:00:32;299.13;;;285.45;;
57643;SDS011;43474;46.510;6.686;2023-02-28T00:03:14;319.40;;;304.15;;
57643;SDS011;43474;46.510;6.686;2023-02-28T00:05:40;212.43;;;201.80;;
57643;SDS011;43474;46.510;6.686;2023-02-28T00:08:06;313.65;;;298.40;;
57643;SDS011;43474;46.510;6.686;2023-02-28T00:10:33;284.98;;;271.50;;
57643;SDS011;43474;46.510;6.686;2023-02-28T00:13:00;297.48;;;283.27;;
57643;SDS011;43474;46.510;6.686;2023-02-28T00:15:28;312.35;;;297.55;;
57643;SDS011;43474;46.510;6.686;2023-02-28T00:17:53;310.85;;;295.92;;
57643;SDS011;43474;46.510;6.686;2023-02-28T00:20:19;242.02;;;230.63;;
57643;SDS011;43474;46.510;6.686;2023-02-28T00:22:45;366.23;;;347.95;;
57643;SDS011;43474;46.510;6.686;2023-02-28T00:25:17;329.90;;;314.20;;
57643;SDS011;43474;46.510;6.686;2023-02-28T00:27:45;302.08;;;287.20;;
57643;SDS011;43474;46.510;6.686;2023-02-28T00:30:12;290.33;;;276.70;;
57643;SDS011;43474;46.510;6.686;2023-02-28T00:32:39;316.80;;;301.65;;
57643;SDS011;43474;46.510;6.686;2023-02-28T00:35:06;271.65;;;258.52;;
57643;SDS011;43474;46.510;6.686;2023-02-28T00:37:32;318.52;;;303.20;;
57643;SDS011;43474;46.510;6.686;2023-02-28T00:39:59;325.63;;;309.95;;
57643;SDS011;43474;46.510;6.686;2023-02-28T00:42:24;338.80;;;322.17;;
57643;SDS011;43474;46.510;6.686;2023-02-28T00:44:50;345.40;;;328.67;;
57643;SDS011;43474;46.510;6.686;2023-02-28T00:47:16;347.58;;;330.40;;
57643;SDS011;43474;46.510;6.686;2023-02-28T00:49:42;244.18;;;232.80;;
57643;SDS011;43474;46.510;6.686;2023-02-28T00:52:07;294.15;;;279.92;;
57643;SDS011;43474;46.510;6.686;2023-02-28T00:54:33;335.52;;;319.35;;
57643;SDS011;43474;46.510;6.686;2023-02-28T00:56:59;315.35;;;300.27;;
57643;SDS011;43474;46.510;6.686;2023-02-28T00:59:25;383.92;;;364.95;;
57643;SDS011;43474;46.510;6.686;2023-02-28T01:01:50;344.42;;;327.50;;
57643;SDS011;43474;46.510;6.686;2023-02-28T01:04:16;360.52;;;342.58;;
57643;SDS011;43474;46.510;6.686;2023-02-28T01:06:42;363.70;;;345.27;;
57643;SDS011;43474;46.510;6.686;2023-02-28T01:09:08;300.42;;;286.20;;
57643;SDS011;43474;46.510;6.686;2023-02-28T01:11:34;296.48;;;282.30;;
57643;SDS011;43474;46.510;6.686;2023-02-28T01:14:01;290.13;;;276.45;;
57643;SDS011;43474;46.510;6.686;2023-02-28T01:16:26;328.75;;;312.98;;
57643;SDS011;43474;46.510;6.686;2023-02-28T01:18:52;359.90;;;342.38;;
57643;SDS011;43474;46.510;6.686;2023-02-28T01:21:19;335.70;;;319.38;;
57643;SDS011;43474;46.510;6.686;2023-02-28T01:23:46;370.77;;;352.55;;
57643;SDS011;43474;46.510;6.686;2023-02-28T01:26:14;360.77;;;343.15;;
57643;SDS011;43474;46.510;6.686;2023-02-28T01:28:41;379.13;;;360.30;;
57643;SDS011;43474;46.510;6.686;2023-02-28T01:31:07;391.58;;;372.05;;
57643;SDS011;43474;46.510;6.686;2023-02-28T01:33:33;335.90;;;319.10;;
57643;SDS011;43474;46.510;6.686;2023-02-28T01:36:00;379.00;;;360.40;;
57643;SDS011;43474;46.510;6.686;2023-02-28T01:38:27;361.45;;;343.85;;
57643;SDS011;43474;46.510;6.686;2023-02-28T01:40:53;368.08;;;350.02;;
57643;SDS011;43474;46.510;6.686;2023-02-28T01:43:23;376.70;;;358.23;;
57643;SDS011;43474;46.510;6.686;2023-02-28T01:45:50;360.15;;;342.60;;
57643;SDS011;43474;46.510;6.686;2023-02-28T01:48:17;348.02;;;330.98;;
57643;SDS011;43474;46.510;6.686;2023-02-28T01:50:45;352.70;;;335.48;;
57643;SDS011;43474;46.510;6.686;2023-02-28T01:53:17;304.13;;;289.25;;
57643;SDS011;43474;46.510;6.686;2023-02-28T01:55:47;362.98;;;344.83;;
57643;SDS011;43474;46.510;6.686;2023-02-28T01:58:16;369.02;;;350.88;;
57643;SDS011;43474;46.510;6.686;2023-02-28T02:00:42;383.83;;;364.63;;
57643;SDS011;43474;46.510;6.686;2023-02-28T02:03:08;353.23;;;336.00;;
57643;SDS011;43474;46.510;6.686;2023-02-28T02:05:38;370.85;;;352.55;;
57643;SDS011;43474;46.510;6.686;2023-02-28T02:08:05;372.08;;;353.75;;
57643;SDS011;43474;46.510;6.686;2023-02-28T02:10:41;358.42;;;341.00;;
57643;SDS011;43474;46.510;6.686;2023-02-28T02:18:40;376.55;;;357.98;;
57643;SDS011;43474;46.510;6.686;2023-02-28T02:21:49;383.92;;;364.60;;
57643;SDS011;43474;46.510;6.686;2023-02-28T02:26:58;383.65;;;364.17;;
57643;SDS011;43474;46.510;6.686;2023-02-28T02:35:46;309.33;;;294.38;;
57643;SDS011;43474;46.510;6.686;2023-02-28T02:44:16;381.90;;;363.13;;
57643;SDS011;43474;46.510;6.686;2023-02-28T02:46:54;367.00;;;348.67;;
57643;SDS011;43474;46.510;6.686;2023-02-28T02:49:26;381.65;;;362.70;;
57643;SDS011;43474;46.510;6.686;2023-02-28T02:51:56;395.35;;;375.65;;
57643;SDS011;43474;46.510;6.686;2023-02-28T02:54:27;367.93;;;349.87;;
57643;SDS011;43474;46.510;6.686;2023-02-28T02:56:59;354.90;;;337.58;;
57643;SDS011;43474;46.510;6.686;2023-02-28T02:59:30;331.15;;;315.35;;
57643;SDS011;43474;46.510;6.686;2023-02-28T03:01:59;388.73;;;369.42;;
57643;SDS011;43474;46.510;6.686;2023-02-28T03:04:30;396.93;;;376.83;;
57643;SDS011;43474;46.510;6.686;2023-02-28T03:06:58;371.60;;;353.30;;
57643;SDS011;43474;46.510;6.686;2023-02-28T03:09:24;393.48;;;373.85;;
57643;SDS011;43474;46.510;6.686;2023-02-28T03:11:52;374.10;;;355.42;;
57643;SDS011;43474;46.510;6.686;2023-02-28T03:20:38;376.10;;;357.27;;
57643;SDS011;43474;46.510;6.686;2023-02-28T03:23:17;327.10;;;311.65;;
57643;SDS011;43474;46.510;6.686;2023-02-28T03:25:56;335.42;;;319.23;;
57643;SDS011;43474;46.510;6.686;2023-02-28T03:31:33;307.35;;;292.42;;
57643;SDS011;43474;46.510;6.686;2023-02-28T03:36:50;330.42;;;314.70;;
57643;SDS011;43474;46.510;6.686;2023-02-28T03:39:20;306.90;;;292.27;;
57643;SDS011;43474;46.510;6.686;2023-02-28T03:41:52;313.77;;;298.88;;
57643;SDS011;43474;46.510;6.686;2023-02-28T03:44:29;368.00;;;349.88;;
57643;SDS011;43474;46.510;6.686;2023-02-28T03:47:00;327.55;;;311.98;;
57643;SDS011;43474;46.510;6.686;2023-02-28T03:49:32;375.33;;;356.50;;
57643;SDS011;43474;46.510;6.686;2023-02-28T03:52:05;369.40;;;351.23;;
57643;SDS011;43474;46.510;6.686;2023-02-28T03:54:35;383.80;;;364.60;;
57643;SDS011;43474;46.510;6.686;2023-02-28T03:57:13;359.00;;;341.48;;
57643;SDS011;43474;46.510;6.686;2023-02-28T03:59:47;380.90;;;362.00;;
57643;SDS011;43474;46.510;6.686;2023-02-28T04:02:19;373.42;;;355.08;;
57643;SDS011;43474;46.510;6.686;2023-02-28T04:04:45;378.90;;;360.20;;
57643;SDS011;43474;46.510;6.686;2023-02-28T04:07:13;379.35;;;360.33;;
57643;SDS011;43474;46.510;6.686;2023-02-28T04:09:40;385.48;;;366.17;;
57643;SDS011;43474;46.510;6.686;2023-02-28T04:12:06;378.55;;;359.73;;
57643;SDS011;43474;46.510;6.686;2023-02-28T04:14:32;391.95;;;372.30;;
57643;SDS011;43474;46.510;6.686;2023-02-28T04:16:58;357.38;;;340.10;;
57643;SDS011;43474;46.510;6.686;2023-02-28T04:19:23;370.40;;;352.20;;
57643;SDS011;43474;46.510;6.686;2023-02-28T04:21:50;376.17;;;357.58;;
57643;SDS011;43474;46.510;6.686;2023-02-28T04:24:18;338.52;;;322.35;;
57643;SDS011;43474;46.510;6.686;2023-02-28T04:26:48;366.05;;;347.77;;
57643;SDS011;43474;46.510;6.686;2023-02-28T04:29:20;347.27;;;330.25;;
57643;SDS011;43474;46.510;6.686;2023-02-28T04:31:48;344.45;;;327.88;;
57643;SDS011;43474;46.510;6.686;2023-02-28T04:34:14;329.95;;;313.63;;
57643;SDS011;43474;46.510;6.686;2023-02-28T04:36:40;350.25;;;333.38;;
57643;SDS011;43474;46.510;6.686;2023-02-28T04:39:06;376.90;;;358.08;;
57643;SDS011;43474;46.510;6.686;2023-02-28T04:41:31;322.10;;;306.48;;
57643;SDS011;43474;46.510;6.686;2023-02-28T04:43:57;394.85;;;374.88;;
57643;SDS011;43474;46.510;6.686;2023-02-28T04:46:23;368.08;;;349.92;;
57643;SDS011;43474;46.510;6.686;2023-02-28T04:48:49;332.92;;;316.88;;
57643;SDS011;43474;46.510;6.686;2023-02-28T04:51:15;313.75;;;298.42;;
57643;SDS011;43474;46.510;6.686;2023-02-28T04:53:42;315.27;;;300.00;;
57643;SDS011;43474;46.510;6.686;2023-02-28T04:56:09;371.45;;;353.33;;
57643;SDS011;43474;46.510;6.686;2023-02-28T04:58:37;373.05;;;354.33;;
57643;SDS011;43474;46.510;6.686;2023-02-28T05:01:23;368.88;;;350.73;;
57643;SDS011;43474;46.510;6.686;2023-02-28T05:03:54;277.20;;;264.00;;
57643;SDS011;43474;46.510;6.686;2023-02-28T05:06:21;347.63;;;330.85;;
57643;SDS011;43474;46.510;6.686;2023-02-28T05:08:49;365.65;;;347.65;;
57643;SDS011;43474;46.510;6.686;2023-02-28T05:13:49;301.25;;;286.55;;
57643;SDS011;43474;46.510;6.686;2023-02-28T05:16:16;342.02;;;325.20;;
57643;SDS011;43474;46.510;6.686;2023-02-28T05:18:42;357.10;;;339.30;;
57643;SDS011;43474;46.510;6.686;2023-02-28T05:24:03;312.23;;;297.30;;
57643;SDS011;43474;46.510;6.686;2023-02-28T05:26:33;370.05;;;351.90;;
57643;SDS011;43474;46.510;6.686;2023-02-28T05:29:00;326.90;;;310.85;;
57643;SDS011;43474;46.510;6.686;2023-02-28T05:31:26;361.20;;;342.92;;
57643;SDS011;43474;46.510;6.686;2023-02-28T05:33:51;336.27;;;319.85;;
57643;SDS011;43474;46.510;6.686;2023-02-28T05:36:17;367.00;;;348.95;;
57643;SDS011;43474;46.510;6.686;2023-02-28T05:38:45;348.25;;;331.10;;
57643;SDS011;43474;46.510;6.686;2023-02-28T05:41:11;294.52;;;280.55;;
57643;SDS011;43474;46.510;6.686;2023-02-28T05:43:37;362.75;;;344.88;;
57643;SDS011;43474;46.510;6.686;2023-02-28T05:46:04;337.63;;;321.40;;
57643;SDS011;43474;46.510;6.686;2023-02-28T05:48:31;247.75;;;236.13;;
57643;SDS011;43474;46.510;6.686;2023-02-28T05:50:57;359.90;;;342.30;;
57643;SDS011;43474;46.510;6.686;2023-02-28T05:53:23;223.23;;;213.13;;
57643;SDS011;43474;46.510;6.686;2023-02-28T05:55:49;244.02;;;232.43;;
57643;SDS011;43474;46.510;6.686;2023-02-28T05:58:14;319.00;;;303.38;;
57643;SDS011;43474;46.510;6.686;2023-02-28T06:00:40;356.33;;;338.83;;
57643;SDS011;43474;46.510;6.686;2023-02-28T06:03:06;264.75;;;251.88;;
57643;SDS011;43474;46.510;6.686;2023-02-28T06:05:31;342.92;;;325.83;;
57643;SDS011;43474;46.510;6.686;2023-02-28T06:07:57;358.80;;;340.95;;
57643;SDS011;43474;46.510;6.686;2023-02-28T06:10:23;344.52;;;327.33;;
57643;SDS011;43474;46.510;6.686;2023-02-28T06:12:48;320.40;;;304.83;;
57643;SDS011;43474;46.510;6.686;2023-02-28T06:15:14;320.15;;;304.77;;
57643;SDS011;43474;46.510;6.686;2023-02-28T06:17:42;340.80;;;324.40;;
57643;SDS011;43474;46.510;6.686;2023-02-28T06:20:09;342.02;;;325.15;;
57643;SDS011;43474;46.510;6.686;2023-02-28T06:22:38;334.95;;;318.63;;
57643;SDS011;43474;46.510;6.686;2023-02-28T06:25:05;373.38;;;354.85;;
57643;SDS011;43474;46.510;6.686;2023-02-28T06:27:32;357.55;;;339.85;;
57643;SDS011;43474;46.510;6.686;2023-02-28T06:29:58;354.33;;;337.13;;
57643;SDS011;43474;46.510;6.686;2023-02-28T06:32:24;352.52;;;335.35;;
57643;SDS011;43474;46.510;6.686;2023-02-28T06:34:50;358.17;;;340.73;;
57643;SDS011;43474;46.510;6.686;2023-02-28T06:37:16;366.30;;;347.88;;
57643;SDS011;43474;46.510;6.686;2023-02-28T06:39:42;381.75;;;362.58;;
57643;SDS011;43474;46.510;6.686;2023-02-28T06:42:08;379.90;;;360.73;;
57643;SDS011;43474;46.510;6.686;2023-02-28T06:44:34;378.30;;;359.35;;
57643;SDS011;43474;46.510;6.686;2023-02-28T06:47:04;338.15;;;322.15;;
57643;SDS011;43474;46.510;6.686;2023-02-28T06:49:30;387.85;;;368.23;;
57643;SDS011;43474;46.510;6.686;2023-02-28T06:51:57;343.70;;;326.98;;
57643;SDS011;43474;46.510;6.686;2023-02-28T06:54:23;395.17;;;375.20;;
57643;SDS011;43474;46.510;6.686;2023-02-28T06:56:49;389.83;;;370.30;;
57643;SDS011;43474;46.510;6.686;2023-02-28T06:59:15;381.05;;;361.45;;
57643;SDS011;43474;46.510;6.686;2023-02-28T07:01:42;386.55;;;367.15;;
57643;SDS011;43474;46.510;6.686;2023-02-28T07:04:08;393.35;;;373.27;;
57643;SDS011;43474;46.510;6.686;2023-02-28T07:06:33;377.48;;;358.50;;
57643;SDS011;43474;46.510;6.686;2023-02-28T07:08:59;333.77;;;317.17;;
57643;SDS011;43474;46.510;6.686;2023-02-28T07:11:26;389.50;;;369.38;;
57643;SDS011;43474;46.510;6.686;2023-02-28T07:13:54;352.50;;;335.15;;
57643;SDS011;43474;46.510;6.686;2023-02-28T07:16:20;440.52;;;417.63;;
57643;SDS011;43474;46.510;6.686;2023-02-28T07:18:47;379.02;;;360.02;;
57643;SDS011;43474;46.510;6.686;2023-02-28T07:21:13;346.50;;;329.52;;
57643;SDS011;43474;46.510;6.686;2023-02-28T07:23:39;371.15;;;352.83;;
57643;SDS011;43474;46.510;6.686;2023-02-28T07:26:06;384.05;;;364.77;;
57643;SDS011;43474;46.510;6.686;2023-02-28T07:28:33;305.55;;;290.90;;
57643;SDS011;43474;46.510;6.686;2023-02-28T07:31:05;364.17;;;345.95;;
57643;SDS011;43474;46.510;6.686;2023-02-28T07:33:31;349.13;;;331.83;;
57643;SDS011;43474;46.510;6.686;2023-02-28T07:36:04;392.10;;;372.63;;
57643;SDS011;43474;46.510;6.686;2023-02-28T07:38:38;410.02;;;389.10;;
57643;SDS011;43474;46.510;6.686;2023-02-28T07:41:04;376.15;;;357.45;;
57643;SDS011;43474;46.510;6.686;2023-02-28T07:43:30;385.08;;;365.73;;
57643;SDS011;43474;46.510;6.686;2023-02-28T07:46:00;337.25;;;320.52;;
57643;SDS011;43474;46.510;6.686;2023-02-28T07:48:30;380.70;;;361.33;;
57643;SDS011;43474;46.510;6.686;2023-02-28T07:50:56;374.02;;;354.88;;
57643;SDS011;43474;46.510;6.686;2023-02-28T07:53:23;346.42;;;329.50;;
57643;SDS011;43474;46.510;6.686;2023-02-28T07:55:49;369.30;;;350.95;;
57643;SDS011;43474;46.510;6.686;2023-02-28T07:58:14;381.67;;;362.42;;
57643;SDS011;43474;46.510;6.686;2023-02-28T08:00:40;343.98;;;327.05;;
57643;SDS011;43474;46.510;6.686;2023-02-28T08:03:05;389.60;;;369.60;;
57643;SDS011;43474;46.510;6.686;2023-02-28T08:05:31;292.15;;;278.23;;
57643;SDS011;43474;46.510;6.686;2023-02-28T08:07:57;378.92;;;359.83;;
57643;SDS011;43474;46.510;6.686;2023-02-28T08:10:22;379.10;;;359.88;;
57643;SDS011;43474;46.510;6.686;2023-02-28T08:12:49;378.38;;;359.23;;
57643;SDS011;43474;46.510;6.686;2023-02-28T08:15:14;370.60;;;352.40;;
57643;SDS011;43474;46.510;6.686;2023-02-28T08:17:40;386.23;;;366.60;;
57643;SDS011;43474;46.510;6.686;2023-02-28T08:20:06;380.15;;;361.23;;
57643;SDS011;43474;46.510;6.686;2023-02-28T08:22:32;389.77;;;370.00;;
57643;SDS011;43474;46.510;6.686;2023-02-28T08:24:58;360.55;;;342.40;;
57643;SDS011;43474;46.510;6.686;2023-02-28T08:27:23;355.45;;;337.77;;
57643;SDS011;43474;46.510;6.686;2023-02-28T08:29:49;342.95;;;326.23;;
57643;SDS011;43474;46.510;6.686;2023-02-28T08:32:14;350.77;;;333.73;;
57643;SDS011;43474;46.510;6.686;2023-02-28T08:34:40;349.88;;;332.75;;
57643;SDS011;43474;46.510;6.686;2023-02-28T08:37:05;350.25;;;333.13;;
57643;SDS011;43474;46.510;6.686;2023-02-28T08:39:33;347.45;;;330.05;;
57643;SDS011;43474;46.510;6.686;2023-02-28T08:42:02;388.27;;;368.60;;
57643;SDS011;43474;46.510;6.686;2023-02-28T08:44:29;330.45;;;314.52;;
57643;SDS011;43474;46.510;6.686;2023-02-28T08:46:54;334.50;;;317.92;;
57643;SDS011;43474;46.510;6.686;2023-02-28T08:49:20;338.75;;;321.80;;
57643;SDS011;43474;46.510;6.686;2023-02-28T08:51:45;337.25;;;320.58;;
57643;SDS011;43474;46.510;6.686;2023-02-28T08:54:11;349.35;;;332.13;;
57643;SDS011;43474;46.510;6.686;2023-02-28T08:56:44;336.10;;;319.65;;
57643;SDS011;43474;46.510;6.686;2023-02-28T08:59:11;324.73;;;308.95;;
57643;SDS011;43474;46.510;6.686;2023-02-28T09:01:36;317.48;;;302.30;;
57643;SDS011;43474;46.510;6.686;2023-02-28T09:04:02;303.92;;;289.42;;
57643;SDS011;43474;46.510;6.686;2023-02-28T09:06:28;365.13;;;346.90;;
57643;SDS011;43474;46.510;6.686;2023-02-28T09:08:57;300.70;;;286.10;;
57643;SDS011;43474;46.510;6.686;2023-02-28T09:11:27;314.48;;;299.42;;
57643;SDS011;43474;46.510;6.686;2023-02-28T09:13:53;278.77;;;265.25;;
57643;SDS011;43474;46.510;6.686;2023-02-28T09:16:20;267.58;;;254.88;;
57643;SDS011;43474;46.510;6.686;2023-02-28T09:18:46;263.30;;;250.63;;
57643;SDS011;43474;46.510;6.686;2023-02-28T09:21:15;257.73;;;245.40;;
57643;SDS011;43474;46.510;6.686;2023-02-28T09:23:43;253.82;;;241.57;;
57643;SDS011;43474;46.510;6.686;2023-02-28T09:26:16;235.82;;;224.38;;
57643;SDS011;43474;46.510;6.686;2023-02-28T09:28:47;281.20;;;267.83;;
57643;SDS011;43474;46.510;6.686;2023-02-28T09:31:14;245.93;;;233.98;;
57643;SDS011;43474;46.510;6.686;2023-02-28T09:33:42;248.73;;;236.27;;
57643;SDS011;43474;46.510;6.686;2023-02-28T09:36:08;226.65;;;215.55;;
57643;SDS011;43474;46.510;6.686;2023-02-28T09:38:34;202.20;;;192.30;;
57643;SDS011;43474;46.510;6.686;2023-02-28T09:41:02;187.27;;;177.82;;
57643;SDS011;43474;46.510;6.686;2023-02-28T09:43:33;201.77;;;191.90;;
57643;SDS011;43474;46.510;6.686;2023-02-28T09:48:41;180.55;;;171.55;;
57643;SDS011;43474;46.510;6.686;2023-02-28T09:54:01;139.70;;;131.88;;
57643;SDS011;43474;46.510;6.686;2023-02-28T09:56:30;115.88;;;109.82;;
57643;SDS011;43474;46.510;6.686;2023-02-28T10:02:02;75.43;;;70.82;;
57643;SDS011;43474;46.510;6.686;2023-02-28T10:04:59;101.95;;;96.60;;
57643;SDS011;43474;46.510;6.686;2023-02-28T10:08:11;54.80;;;51.38;;
57643;SDS011;43474;46.510;6.686;2023-02-28T10:13:31;17.65;;;14.45;;
57643;SDS011;43474;46.510;6.686;2023-02-28T10:15:54;20.88;;;13.98;;
57643;SDS011;43474;46.510;6.686;2023-02-28T10:18:39;28.13;;;25.50;;
57643;SDS011;43474;46.510;6.686;2023-02-28T10:21:19;24.52;;;22.35;;
57643;SDS011;43474;46.510;6.686;2023-02-28T10:23:49;27.60;;;25.17;;
57643;SDS011;43474;46.510;6.686;2023-02-28T10:26:21;25.00;;;22.65;;
57643;SDS011;43474;46.510;6.686;2023-02-28T10:28:49;32.92;;;29.70;;
57643;SDS011;43474;46.510;6.686;2023-02-28T10:31:18;26.48;;;24.15;;
57643;SDS011;43474;46.510;6.686;2023-02-28T10:33:45;27.60;;;25.50;;
57643;SDS011;43474;46.510;6.686;2023-02-28T10:36:16;27.70;;;25.38;;
57643;SDS011;43474;46.510;6.686;2023-02-28T10:41:26;23.55;;;21.05;;
57643;SDS011;43474;46.510;6.686;2023-02-28T10:43:53;25.23;;;23.02;;
57643;SDS011;43474;46.510;6.686;2023-02-28T10:46:39;24.48;;;22.17;;
57643;SDS011;43474;46.510;6.686;2023-02-28T10:49:12;26.63;;;24.38;;
57643;SDS011;43474;46.510;6.686;2023-02-28T10:51:41;25.40;;;23.20;;
57643;SDS011;43474;46.510;6.686;2023-02-28T10:54:18;30.30;;;27.67;;
57643;SDS011;43474;46.510;6.686;2023-02-28T10:57:20;26.27;;;23.85;;
57643;SDS011;43474;46.510;6.686;2023-02-28T10:59:52;28.25;;;25.70;;
57643;SDS011;43474;46.510;6.686;2023-02-28T11:02:39;39.92;;;36.17;;
57643;SDS011;43474;46.510;6.686;2023-02-28T11:05:24;38.55;;;35.67;;
57643;SDS011;43474;46.510;6.686;2023-02-28T11:08:12;44.72;;;41.40;;
57643;SDS011;43474;46.510;6.686;2023-02-28T11:10:43;45.22;;;42.28;;
57643;SDS011;43474;46.510;6.686;2023-02-28T11:13:24;47.90;;;44.55;;
57643;SDS011;43474;46.510;6.686;2023-02-28T11:15:55;35.20;;;32.50;;
57643;SDS011;43474;46.510;6.686;2023-02-28T11:21:16;33.47;;;30.67;;
57643;SDS011;43474;46.510;6.686;2023-02-28T11:23:46;31.50;;;28.92;;
57643;SDS011;43474;46.510;6.686;2023-02-28T11:26:14;36.60;;;33.90;;
57643;SDS011;43474;46.510;6.686;2023-02-28T11:28:41;24.95;;;22.67;;
57643;SDS011;43474;46.510;6.686;2023-02-28T11:36:24;20.05;;;17.98;;
57643;SDS011;43474;46.510;6.686;2023-02-28T11:38:58;23.50;;;18.80;;
57643;SDS011;43474;46.510;6.686;2023-02-28T11:47:31;22.42;;;19.40;;
57643;SDS011;43474;46.510;6.686;2023-02-28T11:52:42;28.13;;;25.65;;
57643;SDS011;43474;46.510;6.686;2023-02-28T12:03:52;37.25;;;34.35;;
57643;SDS011;43474;46.510;6.686;2023-02-28T12:11:11;48.00;;;44.80;;
57643;SDS011;43474;46.510;6.686;2023-02-28T12:14:02;49.30;;;46.00;;
57643;SDS011;43474;46.510;6.686;2023-02-28T12:19:45;44.20;;;41.03;;
57643;SDS011;43474;46.510;6.686;2023-02-28T12:27:37;47.30;;;43.97;;
57643;SDS011;43474;46.510;6.686;2023-02-28T12:30:16;47.70;;;44.15;;
57643;SDS011;43474;46.510;6.686;2023-02-28T12:32:55;38.67;;;35.78;;
57643;SDS011;43474;46.510;6.686;2023-02-28T12:35:48;51.58;;;48.00;;
57643;SDS011;43474;46.510;6.686;2023-02-28T12:38:22;45.45;;;42.13;;
57643;SDS011;43474;46.510;6.686;2023-02-28T12:40:59;44.15;;;41.00;;
57643;SDS011;43474;46.510;6.686;2023-02-28T12:43:32;47.83;;;44.38;;
57643;SDS011;43474;46.510;6.686;2023-02-28T12:46:13;47.65;;;44.58;;
57643;SDS011;43474;46.510;6.686;2023-02-28T12:48:43;58.20;;;54.35;;
57643;SDS011;43474;46.510;6.686;2023-02-28T12:51:16;55.15;;;51.08;;
57643;SDS011;43474;46.510;6.686;2023-02-28T12:56:48;76.10;;;71.53;;
57643;SDS011;43474;46.510;6.686;2023-02-28T12:59:59;79.63;;;74.93;;
57643;SDS011;43474;46.510;6.686;2023-02-28T13:05:14;160.27;;;152.00;;
57643;SDS011;43474;46.510;6.686;2023-02-28T13:08:11;73.43;;;68.78;;
57643;SDS011;43474;46.510;6.686;2023-02-28T13:10:49;114.90;;;108.68;;
57643;SDS011;43474;46.510;6.686;2023-02-28T13:13:28;104.40;;;98.80;;
57643;SDS011;43474;46.510;6.686;2023-02-28T13:16:17;243.50;;;231.23;;
57643;SDS011;43474;46.510;6.686;2023-02-28T13:18:43;92.15;;;86.95;;
57643;SDS011;43474;46.510;6.686;2023-02-28T13:21:24;450.70;;;424.63;;
57643;SDS011;43474;46.510;6.686;2023-02-28T13:26:21;93.70;;;88.45;;
57643;SDS011;43474;46.510;6.686;2023-02-28T13:34:39;24.27;;;22.08;;
57643;SDS011;43474;46.510;6.686;2023-02-28T13:39:58;21.35;;;18.40;;
57643;SDS011;43474;46.510;6.686;2023-02-28T13:42:35;21.17;;;16.05;;
57643;SDS011;43474;46.510;6.686;2023-02-28T13:47:44;20.15;;;14.85;;
57643;SDS011;43474;46.510;6.686;2023-02-28T13:53:13;19.10;;;13.68;;
57643;SDS011;43474;46.510;6.686;2023-02-28T13:56:03;18.67;;;15.15;;
57643;SDS011;43474;46.510;6.686;2023-02-28T14:06:54;19.08;;;13.80;;
57643;SDS011;43474;46.510;6.686;2023-02-28T14:09:25;19.95;;;12.77;;
57643;SDS011;43474;46.510;6.686;2023-02-28T14:11:54;22.10;;;14.02;;
57643;SDS011;43474;46.510;6.686;2023-02-28T14:17:04;18.98;;;13.82;;
57643;SDS011;43474;46.510;6.686;2023-02-28T14:19:35;18.92;;;16.52;;
57643;SDS011;43474;46.510;6.686;2023-02-28T14:25:08;21.65;;;15.88;;
57643;SDS011;43474;46.510;6.686;2023-02-28T14:33:20;22.25;;;19.88;;
57643;SDS011;43474;46.510;6.686;2023-02-28T14:35:52;19.77;;;17.65;;
57643;SDS011;43474;46.510;6.686;2023-02-28T14:38:32;33.85;;;31.30;;
57643;SDS011;43474;46.510;6.686;2023-02-28T14:41:03;48.65;;;45.90;;
57643;SDS011;43474;46.510;6.686;2023-02-28T14:43:46;45.63;;;42.53;;
57643;SDS011;43474;46.510;6.686;2023-02-28T14:46:14;25.63;;;23.30;;
57643;SDS011;43474;46.510;6.686;2023-02-28T14:48:42;25.58;;;23.13;;
57643;SDS011;43474;46.510;6.686;2023-02-28T14:51:18;25.65;;;23.23;;
57643;SDS011;43474;46.510;6.686;2023-02-28T14:53:48;24.80;;;22.42;;
57643;SDS011;43474;46.510;6.686;2023-02-28T14:56:21;30.98;;;28.45;;
57643;SDS011;43474;46.510;6.686;2023-02-28T14:58:54;28.70;;;25.92;;
57643;SDS011;43474;46.510;6.686;2023-02-28T15:01:21;39.95;;;37.33;;
57643;SDS011;43474;46.510;6.686;2023-02-28T15:03:48;31.77;;;29.23;;
57643;SDS011;43474;46.510;6.686;2023-02-28T15:06:23;26.92;;;24.65;;
57643;SDS011;43474;46.510;6.686;2023-02-28T15:09:05;58.25;;;54.47;;
57643;SDS011;43474;46.510;6.686;2023-02-28T15:11:33;58.60;;;54.92;;
57643;SDS011;43474;46.510;6.686;2023-02-28T15:13:59;91.55;;;86.45;;
57643;SDS011;43474;46.510;6.686;2023-02-28T15:16:28;50.72;;;47.22;;
57643;SDS011;43474;46.510;6.686;2023-02-28T15:19:00;73.67;;;69.43;;
57643;SDS011;43474;46.510;6.686;2023-02-28T15:21:35;64.82;;;60.97;;
57643;SDS011;43474;46.510;6.686;2023-02-28T15:24:07;59.42;;;55.80;;
57643;SDS011;43474;46.510;6.686;2023-02-28T15:26:43;46.97;;;43.75;;
57643;SDS011;43474;46.510;6.686;2023-02-28T15:29:17;72.88;;;68.70;;
57643;SDS011;43474;46.510;6.686;2023-02-28T15:31:48;52.17;;;48.78;;
57643;SDS011;43474;46.510;6.686;2023-02-28T15:34:20;86.85;;;82.20;;
57643;SDS011;43474;46.510;6.686;2023-02-28T15:36:59;56.03;;;52.30;;
57643;SDS011;43474;46.510;6.686;2023-02-28T15:39:25;50.80;;;47.42;;
57643;SDS011;43474;46.510;6.686;2023-02-28T15:42:09;57.25;;;53.55;;
57643;SDS011;43474;46.510;6.686;2023-02-28T15:44:42;54.90;;;51.15;;
57643;SDS011;43474;46.510;6.686;2023-02-28T15:47:27;110.75;;;104.97;;
57643;SDS011;43474;46.510;6.686;2023-02-28T15:49:56;95.63;;;90.38;;
57643;SDS011;43474;46.510;6.686;2023-02-28T15:52:27;81.68;;;76.90;;
57643;SDS011;43474;46.510;6.686;2023-02-28T15:54:59;205.55;;;195.68;;
57643;SDS011;43474;46.510;6.686;2023-02-28T15:57:38;89.65;;;84.18;;
57643;SDS011;43474;46.510;6.686;2023-02-28T16:00:06;100.15;;;94.47;;
57643;SDS011;43474;46.510;6.686;2023-02-28T16:02:38;100.93;;;95.25;;
57643;SDS011;43474;46.510;6.686;2023-02-28T16:07:33;107.45;;;101.55;;
57643;SDS011;43474;46.510;6.686;2023-02-28T16:10:00;235.48;;;222.70;;
57643;SDS011;43474;46.510;6.686;2023-02-28T16:12:27;102.07;;;96.25;;
57643;SDS011;43474;46.510;6.686;2023-02-28T16:14:56;125.82;;;118.95;;
57643;SDS011;43474;46.510;6.686;2023-02-28T16:17:24;166.45;;;158.10;;
57643;SDS011;43474;46.510;6.686;2023-02-28T16:19:53;120.63;;;114.25;;
57643;SDS011;43474;46.510;6.686;2023-02-28T16:22:20;174.52;;;165.82;;
57643;SDS011;43474;46.510;6.686;2023-02-28T16:24:46;132.25;;;125.18;;
57643;SDS011;43474;46.510;6.686;2023-02-28T16:27:23;167.63;;;159.23;;
57643;SDS011;43474;46.510;6.686;2023-02-28T16:32:19;197.60;;;187.80;;
57643;SDS011;43474;46.510;6.686;2023-02-28T16:34:44;185.00;;;176.30;;
57643;SDS011;43474;46.510;6.686;2023-02-28T16:37:14;242.32;;;230.25;;